AirNav   Pilot Hours Calculator
 
 909 users online  

7KS0 Flying T Airport
Oskaloosa, Kansas, USA

GOING TO OSKALOOSA?


FAA INFORMATION EFFECTIVE 30 DECEMBER 2021

Location

FAA Identifier: 7KS0
Lat/Long: 39-16-16.9950N 095-19-00.8990W
39-16.283250N 095-19.014983W
39.2713875,-95.3169164
(estimated)
Elevation: 1160 ft. / 354 m (estimated)
Variation: 05E (1985)
From city: 4 miles N of OSKALOOSA, KS
Time zone: UTC -6 (UTC -5 during Daylight Saving Time)
Zip code: 66066

Airport Operations

Airport use: Private use. Permission required prior to landing
Activation date: 10/1977
Control tower: no
ARTCC: KANSAS CITY CENTER
FSS: WICHITA FLIGHT SERVICE STATION
Attendance: MON-FRI DAYLIGHT HOURS
Wind indicator: yes
Segmented circle: no

Airport Communications

WX ASOS at LWC (16 nm S): 121.225 (785-749-1309)
WX ASOS at TOP (19 nm SW): 121.275 (785-234-1591)
WX AWOS-3PT at K59 (19 nm N): 123.675 (913-367-1449)

Nearby radio navigation aids

VOR radial/distance  VOR name  Freq  Var
TOPr048/13.5TOPEKA VORTAC117.8005E
MCIr263/26.9KANSAS CITY VORTAC113.2505E

Airport Services

Runway Information

Runway 9/27

Dimensions: 1600 x 60 ft. / 488 x 18 m
Surface: turf
RUNWAY 9  RUNWAY 27
Traffic pattern: leftleft
Markings: NSTD
Obstructions: none40 ft. pline, 500 ft. from runway

Airport Ownership and Management from official FAA records

Ownership: Privately-owned
Owner: EDWARD J ELMER
12353 US 59 HWY
OSKALOOSA, KS 66066
Phone (785) 764-8548
Manager: ED ELMER
12353 US 59 HWY
OSKALOOSA, KS 66066
Phone (785) 764-8548

Airport Operational Statistics

Aircraft based on the field: 1
Single engine airplanes: 1
    

Additional Remarks

FOR CD CTC KANSAS CITY ARTCC AT 913-254-8508.

Instrument Procedures

There are no published instrument procedures at 7KS0.

Some nearby airports with instrument procedures:

KLWC - Lawrence Regional Airport (16 nm S)
KTOP - Philip Billard Municipal Airport (19 nm SW)
K59 - Amelia Earhart Airport (19 nm N)
KFLV - Sherman Army Airfield (20 nm E)
KFOE - Topeka Regional Airport (25 nm SW)
 
Loc | Ops | Rwys | IFR | FBO | Links
Com | Nav | Svcs | Stats | Notes
Area around 7KS0 (Flying T Airport)
 
Road maps at: MapQuest Bing Google
 
Aerial photo
No photo
 
Sectional chart

 
Airport distance calculator
Flying to Flying T Airport? Find the distance to fly.

From to 7KS0

Sunrise and sunset
Times for 24-Jan-2022
 Local
(UTC-6)
 Zulu
(UTC)
Morning civil twilight07:0713:07
Sunrise07:3613:36
Sunset17:3123:31
Evening civil twilight18:0000:00

Current date and time
Zulu (UTC)  24-Jan-2022 13:40:01
Local (UTC-6)  24-Jan-2022 07:40:01
 
METAR
KLWC 
16nm S 
241252Z AUTO 30004KT 10SM SCT110 07/M02 A2970 RMK AO1 SLP062 T00671017
KTOP 
19nm SW 
241253Z 29006KT 10SM CLR 07/M02 A2971 RMK AO2 SLP065 T00721022
KFOE 
26nm SW 
241253Z 25007KT 10SM CLR 07/M03 A2971 RMK AO2 SLP063 T00671028 $
KMCI 
27nm E 
241253Z 24005KT 10SM OVC110 06/M02 A2968 RMK AO2 SLP055 T00611017
TAF
KTOP 
19nm SW 
241120Z 2412/2512 28007KT P6SM OVC150 FM241600 32013KT P6SM SCT150 FM241900 36014G21KT P6SM SCT025 OVC035 FM250000 02011KT P6SM BKN200
NOTAMs
Click for the latest NOTAMs
NOTAMs are issued by the DoD/FAA and will open in a separate window not controlled by AirNav.

 

 
 

Would you like to see your business listed on this page?

 If your business provides an interesting product or service to pilots, flight crews, aircraft, or users of the Flying T Airport, you should consider listing it here.  To start the listing process, click on the button below
 
Add a business
 

Other Pages about Flying T Airport

Update a link
 
Copyright © AirNav, LLC. All rights reserved. Privacy Policy  Contact